Weather at Launceston Airport

Public forecast

Using degrees Celsius for public forecast. Weather courtesy of forecast.io.

Current aviation weather report (METAR) for Launceston Airport

Retrieved 2020/11/29 04:30 UTC (0 seconds ago):

YMLT 290430Z AUTO 22010KT 170V240 9999 // BKN051 20/09 Q1004

Aviation forecast (TAF) for Launceston Airport

Retrieved 2020-11-29 00:00 UTC (4 hours ago):

TAF YMLT 282313Z 2900/3000 17014KT 9999 SCT035 FM290200 20014KT 9999 SCT050 FM291000 VRB04KT CAVOK FM291800 VRB05KT 9999 BKN025 TEMPO 2919/3000 5000 DZ SCT014 BKN018